createdAt,value
2017-09-28T00:02:58.000Z,71.6
2017-09-28T00:36:30.000Z,71.6
2017-09-28T00:53:15.000Z,71.6
2017-09-28T01:10:00.000Z,71.2
2017-09-28T01:26:47.000Z,71.2
2017-09-28T01:43:32.000Z,71.2
2017-09-28T02:00:17.000Z,71.2
2017-09-28T02:17:03.000Z,70.8
2017-09-28T02:33:49.000Z,70.8
2017-09-28T02:50:34.000Z,70.8
2017-09-28T03:07:19.000Z,70.8
2017-09-28T03:24:04.000Z,70.8
2017-09-28T03:40:50.000Z,70.8
2017-09-28T03:57:36.000Z,70.8
2017-09-28T04:14:20.000Z,70
2017-09-28T04:31:06.000Z,70
2017-09-28T04:47:51.000Z,70
2017-09-28T05:04:36.000Z,69.6
2017-09-28T05:21:21.000Z,69.6
2017-09-28T05:38:07.000Z,69.6
2017-09-28T05:54:52.000Z,69.6
2017-09-28T06:11:37.000Z,69.6
2017-09-28T06:28:22.000Z,69.6
2017-09-28T06:45:08.000Z,69.6
2017-09-28T07:01:53.000Z,69.6
2017-09-28T07:18:38.000Z,69.6
2017-09-28T07:35:23.000Z,69.6
2017-09-28T07:52:09.000Z,69.6
2017-09-28T08:08:54.000Z,69.6
2017-09-28T08:25:39.000Z,69.6
2017-09-28T08:42:24.000Z,69.2
2017-09-28T08:59:09.000Z,69.2
2017-09-28T09:15:55.000Z,69.2
2017-09-28T09:32:41.000Z,69.6
2017-09-28T09:49:27.000Z,69.6
2017-09-28T10:06:13.000Z,69.6
2017-09-28T10:22:58.000Z,70
2017-09-28T10:39:44.000Z,70
2017-09-28T10:56:30.000Z,70
2017-09-28T11:13:17.000Z,70.4
2017-09-28T11:30:04.000Z,70
2017-09-28T11:46:50.000Z,70
2017-09-28T12:03:36.000Z,70
2017-09-28T12:37:09.000Z,70.4
2017-09-28T12:53:56.000Z,70.4
2017-09-28T13:10:43.000Z,70.4
2017-09-28T13:27:29.000Z,70.8
2017-09-28T13:44:17.000Z,71.2
2017-09-28T14:01:03.000Z,71.2
2017-09-28T14:17:50.000Z,71.6
2017-09-28T14:34:36.000Z,71.6
2017-09-28T14:51:23.000Z,71.6
2017-09-28T15:08:10.000Z,71.6
2017-09-28T15:24:56.000Z,71.6
2017-09-28T15:41:43.000Z,71.6
2017-09-28T15:58:31.000Z,72
2017-09-28T16:15:17.000Z,72
2017-09-28T16:32:04.000Z,72
2017-09-28T16:48:51.000Z,72
2017-09-28T17:05:39.000Z,72.8
2017-09-28T17:22:26.000Z,72.4
2017-09-28T17:39:12.000Z,73.2
2017-09-28T17:56:00.000Z,73.2
2017-09-28T18:12:47.000Z,73.6
2017-09-28T18:29:33.000Z,74
2017-09-28T19:03:06.000Z,74.4
2017-09-28T19:19:53.000Z,74.4
2017-09-28T19:36:39.000Z,74.4
2017-09-28T20:10:12.000Z,74.4
2017-09-28T20:26:58.000Z,74.4
2017-09-28T20:43:44.000Z,74.8
2017-09-28T21:00:31.000Z,74.8
2017-09-28T21:17:17.000Z,74.8
2017-09-28T21:34:03.000Z,74.4
2017-09-28T21:50:49.000Z,74.4
2017-09-28T22:07:36.000Z,74.4
2017-09-28T22:24:22.000Z,74.4
2017-09-28T22:41:08.000Z,74.4
2017-09-28T22:57:55.000Z,74.4
2017-09-28T23:14:41.000Z,73.6
2017-09-28T23:31:27.000Z,74.4
2017-09-28T23:48:13.000Z,73.6
